createdAt,value
2018-12-06T00:00:03.574Z,131.75
2018-12-06T00:02:33.944Z,127.70
2018-12-06T00:05:18.912Z,113.85
2018-12-06T00:07:53.892Z,102.15
2018-12-06T00:10:24.076Z,106.52
2018-12-06T00:12:54.184Z,109.12
2018-12-06T00:15:28.555Z,109.97
2018-12-06T00:17:58.736Z,106.43
2018-12-06T00:20:29.102Z,102.85
2018-12-06T00:22:59.423Z,97.95
2018-12-06T00:25:29.666Z,116.05
2018-12-06T00:28:00.044Z,160.60
2018-12-06T00:30:37.792Z,143.07
2018-12-06T00:33:08.194Z,134.07
2018-12-06T00:35:38.380Z,117.50
2018-12-06T00:38:08.683Z,115.15
2018-12-06T00:40:39.068Z,112.42
2018-12-06T00:43:09.293Z,103.95
2018-12-06T00:45:39.558Z,109.75
2018-12-06T00:48:09.728Z,116.00
2018-12-06T00:50:39.948Z,108.35
2018-12-06T00:53:10.136Z,102.97
2018-12-06T00:55:40.407Z,80.62
2018-12-06T00:58:10.743Z,85.85
2018-12-06T01:00:40.984Z,77.82
2018-12-06T01:03:11.371Z,70.22
2018-12-06T01:05:41.551Z,68.52
2018-12-06T01:08:11.736Z,75.83
2018-12-06T01:10:42.072Z,73.67
2018-12-06T01:13:11.941Z,69.30
2018-12-06T01:15:42.060Z,82.37
2018-12-06T01:18:12.231Z,77.90
2018-12-06T01:20:41.951Z,72.55
2018-12-06T01:23:12.447Z,70.55
2018-12-06T01:25:42.691Z,68.73
2018-12-06T01:28:13.064Z,71.72
2018-12-06T01:30:43.300Z,62.95
2018-12-06T01:33:13.429Z,73.10
2018-12-06T01:35:43.730Z,74.27
2018-12-06T01:38:13.891Z,59.30
2018-12-06T01:40:44.043Z,68.65
2018-12-06T01:43:14.299Z,65.03
2018-12-06T01:45:44.600Z,88.72
2018-12-06T01:48:14.951Z,85.83
2018-12-06T01:50:45.272Z,76.97
2018-12-06T01:53:15.968Z,65.75
2018-12-06T01:55:46.295Z,75.75
2018-12-06T01:58:16.404Z,80.95
2018-12-06T02:00:46.652Z,78.42
2018-12-06T02:03:17.020Z,78.97
2018-12-06T02:05:47.388Z,74.67
2018-12-06T02:08:17.223Z,68.87
2018-12-06T02:10:47.346Z,69.60
2018-12-06T02:13:17.884Z,64.10
2018-12-06T02:15:48.142Z,63.52
2018-12-06T02:18:18.299Z,56.37
2018-12-06T02:20:48.545Z,56.48
2018-12-06T02:23:19.143Z,54.38
2018-12-06T02:25:49.410Z,56.68
2018-12-06T02:28:19.930Z,56.28
2018-12-06T02:30:50.428Z,49.95
2018-12-06T02:33:20.874Z,64.97
2018-12-06T02:35:51.379Z,80.32
2018-12-06T02:38:21.827Z,71.20
2018-12-06T02:40:52.208Z,62.15
2018-12-06T02:43:22.596Z,54.77
2018-12-06T02:45:53.061Z,46.88
2018-12-06T02:48:23.499Z,52.48
2018-12-06T02:50:53.276Z,49.18
2018-12-06T02:53:23.639Z,50.17
2018-12-06T02:55:54.076Z,49.48
2018-12-06T02:58:24.560Z,48.05
2018-12-06T03:00:54.999Z,50.85
2018-12-06T03:03:25.359Z,51.05
2018-12-06T03:05:55.648Z,55.40
2018-12-06T03:08:25.449Z,47.13
2018-12-06T03:10:55.659Z,40.60
2018-12-06T03:13:26.143Z,46.13
2018-12-06T03:15:56.383Z,50.63
2018-12-06T03:18:26.780Z,42.60
2018-12-06T03:20:57.313Z,41.03
2018-12-06T03:23:27.924Z,42.27
2018-12-06T03:25:58.351Z,44.33
2018-12-06T03:28:28.684Z,42.80
2018-12-06T03:30:58.944Z,42.20
2018-12-06T03:33:29.309Z,45.52
2018-12-06T03:35:59.135Z,42.17
2018-12-06T03:38:28.750Z,49.88
2018-12-06T03:40:58.988Z,39.33
2018-12-06T03:43:29.508Z,40.28
2018-12-06T03:45:59.992Z,42.70
2018-12-06T03:48:30.304Z,41.10
2018-12-06T03:51:00.821Z,51.70
2018-12-06T03:53:31.289Z,47.13
2018-12-06T03:56:01.796Z,51.55
2018-12-06T03:58:32.049Z,37.98
2018-12-06T04:01:01.851Z,42.90
2018-12-06T04:03:32.207Z,35.38
2018-12-06T04:06:02.860Z,40.00
2018-12-06T04:08:33.340Z,40.48
2018-12-06T04:11:03.158Z,39.58
2018-12-06T04:13:33.347Z,38.63
2018-12-06T04:16:03.860Z,42.50
2018-12-06T04:18:34.256Z,41.33
2018-12-06T04:21:04.668Z,33.65
2018-12-06T04:23:35.072Z,41.33
2018-12-06T04:26:05.828Z,36.63
2018-12-06T04:28:36.269Z,50.23
2018-12-06T04:31:06.692Z,39.08
2018-12-06T04:33:36.984Z,41.23
2018-12-06T04:36:06.666Z,36.68
2018-12-06T04:38:37.076Z,45.70
2018-12-06T04:41:07.455Z,51.25
2018-12-06T04:43:37.747Z,51.48
2018-12-06T04:46:08.631Z,48.70
2018-12-06T04:48:38.964Z,47.70
2018-12-06T04:51:09.480Z,51.45
2018-12-06T04:53:39.738Z,45.78
2018-12-06T04:56:10.023Z,41.68
2018-12-06T04:58:40.376Z,42.62
2018-12-06T05:01:10.843Z,36.70
2018-12-06T05:03:41.051Z,40.17
2018-12-06T05:06:11.570Z,36.70
2018-12-06T05:08:41.904Z,38.75
2018-12-06T05:11:12.302Z,40.98
2018-12-06T05:13:42.755Z,43.00
2018-12-06T05:16:13.102Z,46.13
2018-12-06T05:18:43.536Z,43.30
2018-12-06T05:21:14.019Z,49.25
2018-12-06T05:23:44.462Z,50.90
2018-12-06T05:26:14.796Z,51.55
2018-12-06T05:28:45.330Z,53.78
2018-12-06T05:31:15.713Z,45.65
2018-12-06T05:33:46.058Z,45.67
2018-12-06T05:36:16.567Z,42.30
2018-12-06T05:38:47.150Z,41.98
2018-12-06T05:41:17.470Z,42.45
2018-12-06T05:43:48.002Z,40.78
2018-12-06T05:46:17.757Z,50.17
2018-12-06T05:48:48.006Z,56.18
2018-12-06T05:51:18.418Z,52.53
2018-12-06T05:53:48.627Z,44.25
2018-12-06T05:56:18.930Z,45.85
2018-12-06T05:58:48.762Z,51.05
2018-12-06T06:01:19.143Z,94.67
2018-12-06T06:03:48.898Z,88.78
2018-12-06T06:06:19.266Z,65.15
2018-12-06T06:08:49.830Z,47.55
2018-12-06T06:11:19.666Z,42.45
2018-12-06T06:13:50.047Z,38.30
2018-12-06T06:16:19.905Z,36.33
2018-12-06T06:18:50.251Z,37.98
2018-12-06T06:21:20.594Z,38.63
2018-12-06T06:23:50.840Z,41.00
2018-12-06T06:26:21.151Z,46.28
2018-12-06T06:28:51.679Z,47.60
2018-12-06T06:31:22.003Z,45.35
2018-12-06T06:33:52.499Z,40.15
2018-12-06T06:36:22.950Z,43.92
2018-12-06T06:38:53.278Z,48.60
2018-12-06T06:41:23.595Z,49.67
2018-12-06T06:43:54.006Z,50.15
2018-12-06T06:46:24.206Z,51.02
2018-12-06T06:48:54.647Z,69.58
2018-12-06T06:51:25.122Z,50.92
2018-12-06T06:53:55.398Z,50.25
2018-12-06T06:56:25.691Z,48.05
2018-12-06T06:58:56.083Z,56.25
2018-12-06T07:01:26.326Z,44.88
2018-12-06T07:03:56.903Z,40.38
2018-12-06T07:06:27.443Z,41.90
2018-12-06T07:08:57.997Z,42.48
2018-12-06T07:11:28.398Z,38.63
2018-12-06T07:13:58.699Z,39.90
2018-12-06T07:16:29.166Z,47.13
2018-12-06T07:18:59.477Z,44.77
2018-12-06T07:21:29.836Z,42.10
2018-12-06T07:24:00.106Z,48.68
2018-12-06T07:26:30.852Z,51.60
2018-12-06T07:29:01.198Z,48.28
2018-12-06T07:31:30.926Z,55.70
2018-12-06T07:34:01.094Z,58.75
2018-12-06T07:36:31.458Z,65.10
2018-12-06T07:39:01.846Z,54.77
2018-12-06T07:41:32.186Z,50.03
2018-12-06T07:44:02.694Z,56.60
2018-12-06T07:46:33.042Z,44.55
2018-12-06T07:49:03.252Z,46.70
2018-12-06T07:51:33.628Z,50.23
2018-12-06T07:54:03.899Z,48.37
2018-12-06T07:56:34.275Z,57.13
2018-12-06T07:59:04.622Z,51.60
2018-12-06T08:01:34.894Z,53.90
2018-12-06T08:04:05.195Z,49.63
2018-12-06T08:06:35.697Z,50.23
2018-12-06T08:09:08.707Z,50.60
2018-12-06T08:11:38.978Z,50.07
2018-12-06T08:14:08.649Z,49.30
2018-12-06T08:16:38.986Z,50.47
2018-12-06T08:19:09.310Z,49.03
2018-12-06T08:21:39.919Z,49.53
2018-12-06T08:24:10.138Z,53.10
2018-12-06T08:26:40.477Z,46.53
2018-12-06T08:29:10.710Z,46.40
2018-12-06T08:31:40.414Z,46.90
2018-12-06T08:34:10.692Z,60.63
2018-12-06T08:36:40.971Z,72.47
2018-12-06T08:39:11.545Z,102.67
2018-12-06T08:41:42.014Z,62.73
2018-12-06T08:44:12.295Z,53.30
2018-12-06T08:46:42.721Z,53.97
2018-12-06T08:49:13.298Z,60.87
2018-12-06T08:51:43.862Z,65.07
2018-12-06T08:54:14.966Z,61.80
2018-12-06T08:56:45.675Z,66.37
2018-12-06T08:59:16.644Z,59.23
2018-12-06T09:01:47.215Z,66.90
2018-12-06T09:04:17.811Z,70.87
2018-12-06T09:06:48.290Z,62.07
2018-12-06T09:09:18.893Z,73.10
2018-12-06T09:11:50.351Z,69.53
2018-12-06T09:14:20.123Z,87.40
2018-12-06T09:16:50.588Z,79.03
2018-12-06T09:19:21.987Z,87.40
2018-12-06T09:21:53.610Z,72.37
2018-12-06T09:24:24.170Z,57.93
2018-12-06T09:26:58.681Z,54.70
2018-12-06T09:29:25.102Z,50.30
2018-12-06T09:31:55.682Z,49.33
2018-12-06T09:34:26.475Z,48.40
2018-12-06T09:36:56.953Z,52.43
2018-12-06T09:39:27.335Z,54.03
2018-12-06T09:41:57.926Z,55.30
2018-12-06T09:44:29.211Z,47.43
2018-12-06T09:46:59.790Z,50.67
2018-12-06T09:49:29.569Z,49.87
2018-12-06T09:51:59.926Z,44.73
2018-12-06T09:54:30.314Z,45.40
2018-12-06T09:57:00.770Z,48.23
2018-12-06T09:59:31.442Z,45.70
2018-12-06T10:02:01.922Z,47.47
2018-12-06T10:04:32.402Z,45.87
2018-12-06T10:07:02.994Z,46.27
2018-12-06T10:09:32.777Z,50.73
2018-12-06T10:12:03.130Z,46.67
2018-12-06T10:14:33.623Z,49.03
2018-12-06T10:17:04.221Z,40.93
2018-12-06T10:19:34.654Z,46.73
2018-12-06T10:22:05.499Z,42.20
2018-12-06T10:24:36.027Z,42.97
2018-12-06T10:27:06.622Z,46.33
2018-12-06T10:29:36.389Z,43.20
2018-12-06T10:32:07.615Z,47.90
2018-12-06T10:34:38.342Z,36.97
2018-12-06T10:37:08.822Z,42.10
2018-12-06T10:39:39.298Z,41.00
2018-12-06T10:42:09.742Z,47.67
2018-12-06T10:44:40.253Z,46.67
2018-12-06T10:47:10.735Z,46.93
2018-12-06T10:49:41.422Z,41.17
2018-12-06T10:52:11.959Z,41.63
2018-12-06T10:54:42.423Z,38.97
2018-12-06T10:57:12.958Z,37.60
2018-12-06T10:59:43.430Z,36.83
2018-12-06T11:02:18.798Z,32.77
2018-12-06T11:04:49.203Z,34.27
2018-12-06T11:07:19.674Z,43.57
2018-12-06T11:09:50.046Z,33.37
2018-12-06T11:12:20.634Z,32.77
2018-12-06T11:14:51.224Z,40.20
2018-12-06T11:17:21.683Z,31.67
2018-12-06T11:19:52.142Z,31.70
2018-12-06T11:22:23.254Z,37.77
2018-12-06T11:24:54.539Z,35.33
2018-12-06T11:27:25.038Z,31.20
2018-12-06T11:29:55.407Z,29.87
2018-12-06T11:32:25.982Z,28.67
2018-12-06T11:34:56.464Z,29.07
2018-12-06T11:37:27.035Z,27.37
2018-12-06T11:39:58.234Z,25.27
2018-12-06T11:42:29.510Z,26.37
2018-12-06T11:44:59.906Z,23.43
2018-12-06T11:47:30.499Z,26.37
2018-12-06T11:50:00.070Z,25.33
2018-12-06T11:52:30.533Z,31.10
2018-12-06T11:55:00.887Z,31.37
2018-12-06T11:57:31.250Z,27.63
2018-12-06T12:00:01.732Z,30.80
2018-12-06T12:02:32.219Z,32.33
2018-12-06T12:05:02.722Z,28.17
2018-12-06T12:07:34.002Z,30.17
2018-12-06T12:10:04.483Z,31.93
2018-12-06T12:12:35.050Z,28.77
2018-12-06T12:15:06.597Z,30.07
2018-12-06T12:17:37.034Z,40.43
2018-12-06T12:20:08.008Z,34.13
2018-12-06T12:22:38.510Z,27.20
2018-12-06T12:25:08.998Z,24.27
2018-12-06T12:27:39.578Z,22.57
2018-12-06T12:30:10.158Z,21.33
2018-12-06T12:32:40.626Z,18.33
2018-12-06T12:35:11.001Z,20.07
2018-12-06T12:37:41.583Z,19.83
2018-12-06T12:40:13.090Z,23.37
2018-12-06T12:42:43.551Z,19.40
2018-12-06T12:45:14.026Z,21.17
2018-12-06T12:47:44.614Z,25.60
2018-12-06T12:50:14.995Z,31.47
2018-12-06T12:52:45.394Z,21.70
2018-12-06T12:55:15.675Z,22.63
2018-12-06T12:57:46.906Z,21.40
2018-12-06T13:00:17.286Z,18.17
2018-12-06T13:02:47.778Z,20.07
2018-12-06T13:05:18.268Z,20.93
2018-12-06T13:07:49.662Z,22.20
2018-12-06T13:10:20.043Z,22.43
2018-12-06T13:12:50.459Z,27.13
2018-12-06T13:15:21.019Z,29.03
2018-12-06T13:17:51.434Z,20.90
2018-12-06T13:20:21.943Z,24.23
2018-12-06T13:22:52.738Z,49.93
2018-12-06T13:25:23.007Z,69.27
2018-12-06T13:27:53.966Z,36.33
2018-12-06T13:30:24.366Z,30.70
2018-12-06T13:32:54.930Z,35.30
2018-12-06T13:35:25.416Z,51.43
2018-12-06T13:37:55.894Z,46.53
2018-12-06T13:40:26.257Z,33.77
2018-12-06T13:42:56.691Z,41.10
2018-12-06T13:45:27.034Z,23.10
2018-12-06T13:47:57.606Z,18.03
2018-12-06T13:50:28.090Z,21.97
2018-12-06T13:52:59.624Z,20.07
2018-12-06T13:55:29.966Z,22.47
2018-12-06T13:58:00.592Z,20.70
2018-12-06T14:00:31.218Z,22.47
2018-12-06T14:03:01.725Z,18.67
2018-12-06T14:05:32.295Z,15.60
2018-12-06T14:08:02.741Z,15.10
2018-12-06T14:10:33.070Z,18.20
2018-12-06T14:13:03.630Z,15.70
2018-12-06T14:15:34.909Z,14.67
2018-12-06T14:18:05.480Z,17.53
2018-12-06T14:20:36.082Z,13.50
2018-12-06T14:23:06.818Z,13.37
2018-12-06T14:25:37.230Z,13.57
2018-12-06T14:28:07.670Z,14.23
2018-12-06T14:30:38.383Z,14.47
2018-12-06T14:33:10.153Z,13.50
2018-12-06T14:35:40.559Z,13.90
2018-12-06T14:38:11.045Z,11.00
2018-12-06T14:40:41.523Z,12.07
2018-12-06T14:43:12.147Z,20.70
2018-12-06T14:45:42.630Z,17.03
2018-12-06T14:48:13.186Z,16.60
2018-12-06T14:50:43.537Z,13.23
2018-12-06T14:53:14.078Z,17.10
2018-12-06T14:55:44.513Z,16.13
2018-12-06T14:58:15.386Z,18.40
2018-12-06T15:00:45.841Z,15.83
2018-12-06T15:03:16.247Z,21.27
2018-12-06T15:05:45.961Z,20.90
2018-12-06T15:08:16.775Z,20.13
2018-12-06T15:10:47.138Z,16.07
2018-12-06T15:13:17.834Z,22.60
2018-12-06T15:15:47.526Z,28.23
2018-12-06T15:18:17.871Z,20.43
2018-12-06T15:20:48.358Z,26.17
2018-12-06T15:23:18.638Z,22.57
2018-12-06T15:25:48.878Z,24.43
2018-12-06T15:28:19.007Z,19.97
2018-12-06T15:30:49.343Z,21.30
2018-12-06T15:33:19.791Z,24.07
2018-12-06T15:35:50.159Z,23.17
2018-12-06T15:38:20.383Z,22.80
2018-12-06T15:40:50.503Z,24.80
2018-12-06T15:43:20.918Z,23.13
2018-12-06T15:45:51.182Z,20.90
2018-12-06T15:48:21.403Z,19.27
2018-12-06T15:50:51.422Z,20.23
2018-12-06T15:53:21.762Z,21.50
2018-12-06T15:55:52.147Z,22.00
2018-12-06T15:58:22.422Z,22.57
2018-12-06T16:00:52.659Z,22.83
2018-12-06T16:03:22.361Z,22.27
2018-12-06T16:05:52.624Z,21.63
2018-12-06T16:08:22.927Z,22.00
2018-12-06T16:10:53.168Z,24.70
2018-12-06T16:13:23.439Z,21.67
2018-12-06T16:15:54.020Z,24.47
2018-12-06T16:18:24.262Z,22.40
2018-12-06T16:20:54.875Z,20.93
2018-12-06T16:23:25.260Z,19.87
2018-12-06T16:25:55.559Z,17.57
2018-12-06T16:28:25.886Z,21.10
2018-12-06T16:30:56.374Z,23.47
2018-12-06T16:33:26.675Z,31.97
2018-12-06T16:35:56.354Z,41.53
2018-12-06T16:38:26.639Z,25.90
2018-12-06T16:40:56.850Z,23.80
2018-12-06T16:43:27.107Z,21.77
2018-12-06T16:45:57.399Z,33.80
2018-12-06T16:48:27.925Z,37.60
2018-12-06T16:50:58.568Z,34.93
2018-12-06T16:53:28.944Z,27.83
2018-12-06T16:55:59.765Z,21.50
2018-12-06T16:58:30.613Z,21.10
2018-12-06T17:01:01.354Z,24.90
2018-12-06T17:03:32.093Z,24.10
2018-12-06T17:06:02.783Z,22.83
2018-12-06T17:08:33.664Z,23.23
2018-12-06T17:11:04.244Z,44.93
2018-12-06T17:13:34.944Z,43.10
2018-12-06T17:16:05.540Z,90.17
2018-12-06T17:18:35.831Z,69.47
2018-12-06T17:21:06.525Z,96.53
2018-12-06T17:23:37.565Z,51.23
2018-12-06T17:26:07.930Z,52.77
2018-12-06T17:28:40.276Z,68.47
2018-12-06T17:31:11.035Z,89.70
2018-12-06T17:33:41.311Z,152.43
2018-12-06T17:36:11.555Z,123.97
2018-12-06T17:38:42.231Z,129.90
2018-12-06T17:41:12.993Z,171.93
2018-12-06T17:43:43.395Z,248.50
2018-12-06T17:46:13.735Z,198.23
2018-12-06T17:48:44.320Z,130.60
2018-12-06T17:51:15.088Z,123.17
2018-12-06T17:53:52.022Z,102.50
2018-12-06T17:56:16.089Z,118.13
2018-12-06T17:58:46.808Z,113.97
2018-12-06T18:01:17.566Z,105.60
2018-12-06T18:03:48.089Z,77.87
2018-12-06T18:06:18.438Z,73.30
2018-12-06T18:08:48.714Z,81.13
2018-12-06T18:11:19.061Z,91.90
2018-12-06T18:13:49.396Z,49.33
2018-12-06T18:16:19.942Z,56.37
2018-12-06T18:18:49.623Z,71.60
2018-12-06T18:21:19.807Z,44.50
2018-12-06T18:23:50.195Z,36.63
2018-12-06T18:26:20.482Z,45.50
2018-12-06T18:28:50.794Z,42.83
2018-12-06T18:31:21.007Z,53.57
2018-12-06T18:33:51.407Z,40.23
2018-12-06T18:36:21.779Z,37.77
2018-12-06T18:38:52.026Z,43.60
2018-12-06T18:41:22.537Z,40.20
2018-12-06T18:43:52.706Z,49.83
2018-12-06T18:46:22.963Z,45.77
2018-12-06T18:48:53.244Z,49.77
2018-12-06T18:51:23.562Z,42.27
2018-12-06T18:53:53.954Z,50.67
2018-12-06T18:56:24.238Z,41.37
2018-12-06T18:58:54.630Z,41.37
2018-12-06T19:01:24.782Z,41.87
2018-12-06T19:03:55.103Z,42.17
2018-12-06T19:06:25.470Z,38.10
2018-12-06T19:08:55.795Z,37.70
2018-12-06T19:11:26.016Z,41.53
2018-12-06T19:13:56.318Z,38.20
2018-12-06T19:16:26.627Z,41.77
2018-12-06T19:18:56.943Z,53.20
2018-12-06T19:21:27.176Z,37.23
2018-12-06T19:23:57.474Z,33.97
2018-12-06T19:26:27.755Z,31.50
2018-12-06T19:28:58.022Z,32.10
2018-12-06T19:31:28.300Z,30.13
2018-12-06T19:33:58.675Z,29.60
2018-12-06T19:36:29.053Z,25.67
2018-12-06T19:38:59.579Z,30.80
2018-12-06T19:41:29.801Z,33.53
2018-12-06T19:43:59.663Z,31.60
2018-12-06T19:46:29.834Z,31.40
2018-12-06T19:49:00.045Z,33.97
2018-12-06T19:51:30.450Z,34.37
2018-12-06T19:54:00.801Z,35.57
2018-12-06T19:56:30.927Z,38.63
2018-12-06T19:59:01.299Z,42.27
2018-12-06T20:01:31.714Z,35.40
2018-12-06T20:04:02.082Z,32.57
2018-12-06T20:06:31.813Z,31.80
2018-12-06T20:09:01.895Z,41.40
2018-12-06T20:11:32.387Z,42.03
2018-12-06T20:14:02.614Z,39.30
2018-12-06T20:16:32.850Z,42.87
2018-12-06T20:19:03.154Z,44.77
2018-12-06T20:21:33.444Z,43.90
2018-12-06T20:24:03.875Z,46.10
2018-12-06T20:26:34.687Z,44.77
2018-12-06T20:29:04.490Z,41.43
2018-12-06T20:31:34.695Z,40.47
2018-12-06T20:34:05.107Z,38.07
2018-12-06T20:36:35.403Z,36.83
2018-12-06T20:39:07.177Z,42.13
2018-12-06T20:41:37.550Z,41.70
2018-12-06T20:44:07.867Z,38.63
2018-12-06T20:46:38.162Z,42.00
2018-12-06T20:49:08.563Z,41.60
2018-12-06T20:51:38.969Z,41.77
2018-12-06T20:54:09.334Z,37.37
2018-12-06T20:56:39.749Z,60.37
2018-12-06T20:59:09.950Z,85.73
2018-12-06T21:01:40.143Z,63.83
2018-12-06T21:04:10.484Z,54.23
2018-12-06T21:06:40.747Z,51.70
2018-12-06T21:09:11.174Z,48.10
2018-12-06T21:11:41.623Z,45.87
2018-12-06T21:14:11.996Z,46.43
2018-12-06T21:16:42.521Z,46.33
2018-12-06T21:19:12.778Z,41.00
2018-12-06T21:21:43.113Z,43.47
2018-12-06T21:24:13.382Z,42.43
2018-12-06T21:26:42.965Z,44.60
2018-12-06T21:29:13.109Z,47.23
2018-12-06T21:31:43.453Z,48.03
2018-12-06T21:34:13.633Z,42.70
2018-12-06T21:36:43.942Z,38.97
2018-12-06T21:39:14.438Z,41.77
2018-12-06T21:41:44.680Z,38.83
2018-12-06T21:44:15.015Z,37.60
2018-12-06T21:46:45.446Z,33.97
2018-12-06T21:49:15.868Z,39.47
2018-12-06T21:51:46.206Z,38.07
2018-12-06T21:54:16.477Z,35.57
2018-12-06T21:56:47.035Z,35.83
2018-12-06T22:05:04.914Z,39.77
2018-12-06T22:07:35.222Z,35.33
2018-12-06T22:10:06.199Z,37.53
2018-12-06T22:12:36.550Z,35.27
2018-12-06T22:15:06.937Z,35.83
2018-12-06T22:17:37.324Z,35.30
2018-12-06T22:20:07.870Z,35.73
2018-12-06T22:22:38.230Z,34.87
2018-12-06T22:25:08.742Z,35.40
2018-12-06T22:27:39.030Z,37.10
2018-12-06T22:30:09.727Z,38.27
2018-12-06T22:32:40.030Z,35.20
2018-12-06T22:35:10.459Z,38.60
2018-12-06T22:37:40.753Z,37.87
2018-12-06T22:40:11.330Z,33.27
2018-12-06T22:42:41.871Z,36.70
2018-12-06T22:45:26.224Z,40.77
2018-12-06T22:47:56.610Z,36.50
2018-12-06T22:50:27.031Z,36.07
2018-12-06T22:52:57.323Z,38.93
2018-12-06T22:55:27.731Z,35.63
2018-12-06T22:57:58.370Z,35.53
2018-12-06T23:00:33.084Z,38.60
2018-12-06T23:03:03.455Z,36.27
2018-12-06T23:05:33.986Z,36.23
2018-12-06T23:08:04.258Z,37.47
2018-12-06T23:10:34.853Z,37.47
2018-12-06T23:13:05.355Z,36.50
2018-12-06T23:15:35.695Z,40.63
2018-12-06T23:18:06.191Z,42.77
2018-12-06T23:20:36.754Z,37.90
2018-12-06T23:23:07.290Z,35.73
2018-12-06T23:25:37.806Z,33.80
2018-12-06T23:28:08.126Z,31.10
2018-12-06T23:30:38.967Z,31.97
2018-12-06T23:33:09.280Z,31.50
2018-12-06T23:35:39.810Z,34.33
2018-12-06T23:38:10.318Z,32.97
2018-12-06T23:40:40.710Z,32.90
2018-12-06T23:43:11.179Z,37.00
2018-12-06T23:45:41.888Z,36.60
2018-12-06T23:48:12.439Z,35.20
2018-12-06T23:50:42.567Z,33.90
2018-12-06T23:53:12.775Z,45.83
2018-12-06T23:55:43.222Z,42.80
2018-12-06T23:58:13.558Z,48.30
